createdAt,value
2019-04-22T00:01:56.915Z,99513.50
2019-04-22T00:04:40.201Z,99510.56
2019-04-22T00:07:17.430Z,99514.46
2019-04-22T00:09:51.490Z,99506.52
2019-04-22T00:12:19.484Z,99504.59
2019-04-22T00:14:48.052Z,99504.20
2019-04-22T00:17:23.470Z,99499.59
2019-04-22T00:20:07.179Z,99495.09
2019-04-22T00:22:23.855Z,99494.72
2019-04-22T00:24:51.242Z,99495.02
2019-04-22T00:27:28.119Z,99486.09
2019-04-22T00:32:32.270Z,99496.45
2019-04-22T00:35:00.301Z,99490.52
2019-04-22T00:37:39.062Z,99482.13
2019-04-22T00:40:10.959Z,99482.55
2019-04-22T00:42:36.374Z,99484.23
2019-04-22T00:45:06.356Z,99474.90
2019-04-22T00:47:34.907Z,99469.07
2019-04-22T00:52:34.313Z,99461.00
2019-04-22T00:55:06.076Z,99465.36
2019-04-22T00:57:35.598Z,99463.20
2019-04-22T01:00:06.998Z,99460.37
2019-04-22T01:02:34.693Z,99464.44
2019-04-22T01:05:09.870Z,99469.92
2019-04-22T01:07:30.857Z,99465.57
2019-04-22T01:10:09.285Z,99464.10
2019-04-22T01:12:36.430Z,99458.82
2019-04-22T01:15:07.040Z,99454.51
2019-04-22T01:17:42.055Z,99455.13
2019-04-22T01:20:17.553Z,99454.08
2019-04-22T01:22:33.033Z,99451.13
2019-04-22T01:25:06.849Z,99448.28
2019-04-22T01:27:32.392Z,99457.27
2019-04-22T01:29:59.776Z,99455.51
2019-04-22T01:32:22.910Z,99448.79
2019-04-22T01:34:56.580Z,99454.39
2019-04-22T01:37:39.011Z,99447.47
2019-04-22T01:40:09.737Z,99443.51
2019-04-22T01:42:48.523Z,99450.44
2019-04-22T01:45:16.585Z,99437.72
2019-04-22T01:47:46.674Z,99440.48
2019-04-22T01:52:46.442Z,99441.50
2019-04-22T01:55:18.497Z,99438.80
2019-04-22T01:57:41.885Z,99439.14
2019-04-22T02:00:05.020Z,99434.75
2019-04-22T02:02:44.065Z,99429.13
2019-04-22T02:05:12.539Z,99431.96
2019-04-22T02:07:46.145Z,99420.41
2019-04-22T02:10:12.339Z,99427.63
2019-04-22T02:12:48.367Z,99423.30
2019-04-22T02:15:11.824Z,99425.59
2019-04-22T02:17:52.975Z,99414.91
2019-04-22T02:20:12.043Z,99418.45
2019-04-22T02:23:30.558Z,99407.23
2019-04-22T02:25:51.524Z,99405.84
2019-04-22T02:28:26.154Z,99403.30
2019-04-22T02:31:02.048Z,99405.81
2019-04-22T02:33:41.003Z,99398.73
2019-04-22T02:36:18.604Z,99390.49
2019-04-22T02:38:40.763Z,99395.46
2019-04-22T02:41:13.252Z,99393.11
2019-04-22T02:43:41.653Z,99391.91
2019-04-22T02:46:26.721Z,99387.70
2019-04-22T02:48:39.733Z,99397.31
2019-04-22T02:51:04.356Z,99397.34
2019-04-22T02:53:59.293Z,99385.89
2019-04-22T02:56:05.688Z,99390.66
2019-04-22T02:58:38.909Z,99382.00
2019-04-22T03:01:05.414Z,99373.44
2019-04-22T03:03:54.832Z,99370.47
2019-04-22T03:06:07.369Z,99376.84
2019-04-22T03:16:17.145Z,99364.61
2019-04-22T03:21:07.775Z,99358.58
2019-04-22T03:23:36.027Z,99353.87
2019-04-22T03:29:30.748Z,99346.05
2019-04-22T03:35:09.741Z,99354.02
2019-04-22T03:44:46.705Z,99347.98
2019-04-22T03:47:11.702Z,99342.84
2019-04-22T03:59:28.503Z,99333.98
2019-04-22T04:04:41.587Z,99328.00
2019-04-22T04:07:28.155Z,99325.03
2019-04-22T04:09:44.344Z,99325.37
2019-04-22T04:11:59.950Z,99327.41
2019-04-22T04:14:37.359Z,99321.97
2019-04-22T04:19:36.786Z,99322.20
2019-04-22T04:21:58.503Z,99314.63
2019-04-22T04:27:15.307Z,99311.55
2019-04-22T04:29:49.196Z,99310.40
2019-04-22T04:32:16.495Z,99312.86
2019-04-22T04:34:51.100Z,99314.51
2019-04-22T04:37:09.034Z,99316.11
2019-04-22T04:42:07.434Z,99319.25
2019-04-22T04:52:27.687Z,99313.81
2019-04-22T04:54:35.929Z,99316.42
2019-04-22T04:56:56.746Z,99311.76
2019-04-22T05:01:58.387Z,99301.88
2019-04-22T05:04:38.679Z,99301.88
2019-04-22T05:07:17.816Z,99294.59
2019-04-22T05:09:23.885Z,99298.26
2019-04-22T05:12:22.149Z,99295.45
2019-04-22T05:14:24.686Z,99291.13
2019-04-22T05:19:26.473Z,99285.17
2019-04-22T05:21:58.159Z,99277.39
2019-04-22T05:26:57.043Z,99274.12
2019-04-22T05:29:26.661Z,99281.91
2019-04-22T05:31:57.059Z,99284.27
2019-04-22T05:34:42.883Z,99278.99
2019-04-22T05:36:58.909Z,99279.73
2019-04-22T05:39:21.561Z,99281.73
2019-04-22T05:41:54.743Z,99278.74
2019-04-22T05:44:29.582Z,99278.06
2019-04-22T05:46:54.398Z,99286.95
2019-04-22T05:49:25.670Z,99279.91
2019-04-22T05:51:55.079Z,99272.12
2019-04-22T05:54:27.885Z,99270.73
2019-04-22T05:56:53.349Z,99260.39
2019-04-22T05:59:32.258Z,99266.59
2019-04-22T06:02:05.335Z,99256.28
2019-04-22T06:04:29.713Z,99252.31
2019-04-22T06:06:57.156Z,99250.80
2019-04-22T06:09:28.854Z,99248.27
2019-04-22T06:11:55.521Z,99199.20
2019-04-22T06:14:25.510Z,99245.04
2019-04-22T06:17:08.311Z,99246.57
2019-04-22T06:19:31.286Z,99239.68
2019-04-22T06:22:06.881Z,99241.48
2019-04-22T06:24:31.440Z,99242.47
2019-04-22T06:27:08.058Z,99236.55
2019-04-22T06:29:31.605Z,99243.05
2019-04-22T06:34:38.921Z,99231.16
2019-04-22T06:37:11.891Z,99237.27
2019-04-22T06:39:35.692Z,99231.87
2019-04-22T06:42:08.347Z,99229.79
2019-04-22T06:44:36.305Z,99232.02
2019-04-22T06:47:12.886Z,99230.93
2019-04-22T06:49:38.369Z,99220.72
2019-04-22T06:52:10.610Z,99216.62
2019-04-22T06:54:35.651Z,99208.92
2019-04-22T06:57:08.745Z,99212.67
2019-04-22T06:59:36.253Z,99207.27
2019-04-22T07:02:14.917Z,99203.95
2019-04-22T07:04:33.790Z,99203.23
2019-04-22T07:07:08.338Z,99151.55
2019-04-22T07:12:08.453Z,99194.09
2019-04-22T07:14:37.321Z,99193.06
2019-04-22T07:17:07.494Z,99191.85
2019-04-22T07:19:40.919Z,99188.85
2019-04-22T07:22:11.293Z,99185.16
2019-04-22T07:29:38.942Z,99174.75
2019-04-22T07:32:06.661Z,99168.51
2019-04-22T07:34:41.161Z,99174.99
2019-04-22T07:42:12.431Z,99159.48
2019-04-22T07:44:38.522Z,99157.78
2019-04-22T07:47:13.432Z,99161.33
2019-04-22T07:49:41.157Z,99154.31
2019-04-22T07:52:09.812Z,99154.17
2019-04-22T07:54:42.360Z,99142.34
2019-04-22T07:57:15.082Z,99135.64
2019-04-22T07:59:40.869Z,99134.19
2019-04-22T08:02:10.409Z,99132.84
2019-04-22T08:04:56.090Z,99128.59
2019-04-22T08:07:12.883Z,99128.09
2019-04-22T08:09:47.675Z,99135.05
2019-04-22T08:12:02.959Z,99129.92
2019-04-22T08:14:42.281Z,99119.09
2019-04-22T08:17:36.441Z,99120.66
2019-04-22T08:19:42.000Z,99118.67
2019-04-22T08:22:07.888Z,99111.25
2019-04-22T08:24:45.001Z,99108.52
2019-04-22T08:27:12.004Z,99104.68
2019-04-22T08:29:46.965Z,99106.59
2019-04-22T08:32:28.257Z,99098.45
2019-04-22T08:34:39.761Z,99101.80
2019-04-22T08:39:43.545Z,99098.95
2019-04-22T08:42:19.066Z,99084.08
2019-04-22T08:44:56.954Z,99088.27
2019-04-22T08:47:19.114Z,99083.88
2019-04-22T08:49:50.498Z,99073.16
2019-04-22T08:52:16.555Z,99069.59
2019-04-22T08:54:49.049Z,99065.45
2019-04-22T08:57:18.255Z,99062.97
2019-04-22T08:59:48.678Z,99057.34
2019-04-22T09:02:23.055Z,99050.68
2019-04-22T09:04:43.377Z,99049.63
2019-04-22T09:09:44.542Z,99045.34
2019-04-22T09:19:47.710Z,99033.87
2019-04-22T09:22:17.561Z,99026.47
2019-04-22T09:24:48.933Z,99033.69
2019-04-22T09:27:24.658Z,99018.33
2019-04-22T09:29:43.223Z,99011.94
2019-04-22T09:32:19.824Z,99013.66
2019-04-22T09:34:50.291Z,99009.86
2019-04-22T09:37:27.170Z,99001.46
2019-04-22T09:39:51.269Z,99006.65
2019-04-22T09:42:21.972Z,99002.95
2019-04-22T09:44:47.930Z,99000.13
2019-04-22T09:47:19.673Z,98989.06
2019-04-22T09:52:14.898Z,98974.91
2019-04-22T09:54:57.025Z,98988.85
2019-04-22T09:57:21.398Z,98972.14
2019-04-22T09:59:51.181Z,98972.55
2019-04-22T10:04:57.223Z,98973.15
2019-04-22T10:07:20.958Z,98957.98
2019-04-22T10:12:29.944Z,98935.79
2019-04-22T10:14:50.864Z,98935.59
2019-04-22T10:17:17.890Z,98937.95
2019-04-22T10:19:50.517Z,98935.42
2019-04-22T10:22:27.537Z,98929.92
2019-04-22T10:24:53.652Z,98917.61
2019-04-22T10:27:22.067Z,98891.62
2019-04-22T10:29:53.693Z,98911.20
2019-04-22T10:32:20.689Z,98918.05
2019-04-22T10:34:37.886Z,98909.28
2019-04-22T10:37:02.710Z,98895.55
2019-04-22T10:39:41.192Z,98896.03
2019-04-22T10:41:58.872Z,98899.96
2019-04-22T10:44:27.315Z,98893.08
2019-04-22T10:46:56.128Z,98880.10
2019-04-22T10:49:24.628Z,98881.31
2019-04-22T10:51:53.050Z,98877.88
2019-04-22T10:54:21.568Z,98872.17
2019-04-22T10:56:50.833Z,98875.72
2019-04-22T10:59:20.628Z,98867.48
2019-04-22T11:01:50.524Z,98859.91
2019-04-22T11:04:19.473Z,98858.94
2019-04-22T11:06:55.669Z,98855.55
2019-04-22T11:09:18.364Z,98850.44
2019-04-22T11:11:57.820Z,98852.73
2019-04-22T11:14:16.959Z,98856.91
2019-04-22T11:16:45.642Z,98841.77
2019-04-22T11:19:14.048Z,98846.91
2019-04-22T11:21:44.585Z,98848.06
2019-04-22T11:24:12.680Z,98846.84
2019-04-22T11:26:41.187Z,98834.80
2019-04-22T11:29:10.056Z,98829.02
2019-04-22T11:31:38.852Z,98825.41
2019-04-22T11:34:08.817Z,98833.71
2019-04-22T11:36:38.753Z,98832.78
2019-04-22T11:39:10.827Z,98837.06
2019-04-22T11:41:38.090Z,98819.55
2019-04-22T11:44:07.581Z,98822.56
2019-04-22T11:46:36.168Z,98812.85
2019-04-22T11:49:05.873Z,98807.94
2019-04-22T11:51:34.297Z,98808.19
2019-04-22T11:54:03.042Z,98800.02
2019-04-22T11:56:31.513Z,98799.37
2019-04-22T11:59:00.674Z,98792.02
2019-04-22T12:01:30.705Z,98769.50
2019-04-22T12:03:59.979Z,98777.98
2019-04-22T12:06:28.436Z,98774.05
2019-04-22T12:08:57.579Z,98778.91
2019-04-22T12:11:26.314Z,98762.02
2019-04-22T12:13:55.812Z,98763.95
2019-04-22T12:16:25.495Z,98755.05
2019-04-22T12:18:55.489Z,98750.64
2019-04-22T12:21:23.934Z,98750.31
2019-04-22T12:23:52.802Z,98745.23
2019-04-22T12:26:23.087Z,98752.27
2019-04-22T12:28:53.049Z,98743.73
2019-04-22T12:31:21.917Z,98733.16
2019-04-22T12:33:50.313Z,98733.32
2019-04-22T12:36:20.225Z,98729.69
2019-04-22T12:38:49.378Z,98734.72
2019-04-22T12:41:18.373Z,98727.05
2019-04-22T12:43:49.249Z,98713.84
2019-04-22T12:46:18.518Z,98721.25
2019-04-22T12:48:47.220Z,98711.89
2019-04-22T12:51:15.689Z,98713.84
2019-04-22T12:53:44.581Z,98704.53
2019-04-22T12:56:15.444Z,98693.73
2019-04-22T12:58:43.847Z,98693.05
2019-04-22T13:01:12.845Z,98680.62
2019-04-22T13:03:42.607Z,98688.16
2019-04-22T13:06:11.967Z,98689.44
2019-04-22T13:08:41.312Z,98689.61
2019-04-22T13:11:12.936Z,98684.93
2019-04-22T13:13:40.926Z,98675.23
2019-04-22T13:16:10.736Z,98672.09
2019-04-22T13:18:46.323Z,98664.05
2019-04-22T13:21:10.825Z,98662.91
2019-04-22T13:23:39.310Z,98659.97
2019-04-22T13:26:08.149Z,98652.85
2019-04-22T13:28:36.874Z,98654.20
2019-04-22T13:31:05.732Z,98642.02
2019-04-22T13:33:34.673Z,98642.52
2019-04-22T13:36:03.843Z,98620.99
2019-04-22T13:38:33.179Z,98625.86
2019-04-22T13:41:16.917Z,98628.79
2019-04-22T13:43:31.762Z,98625.96
2019-04-22T13:46:01.686Z,98617.95
2019-04-22T13:48:52.912Z,98603.84
2019-04-22T13:51:33.824Z,98602.49
2019-04-22T13:54:35.156Z,98612.16
2019-04-22T13:56:19.456Z,98592.55
2019-04-22T13:58:44.785Z,98597.11
2019-04-22T14:01:02.681Z,98591.22
2019-04-22T14:03:42.841Z,98595.64
2019-04-22T14:06:13.050Z,98599.47
2019-04-22T14:08:43.024Z,98587.03
2019-04-22T14:11:23.288Z,98591.23
2019-04-22T14:13:41.921Z,98587.34
2019-04-22T14:16:10.992Z,98583.09
2019-04-22T14:18:41.088Z,98585.02
2019-04-22T14:21:09.648Z,98572.45
2019-04-22T14:23:38.529Z,98581.89
2019-04-22T14:26:07.286Z,98572.28
2019-04-22T14:28:35.865Z,98574.53
2019-04-22T14:31:04.502Z,98575.06
2019-04-22T14:33:34.151Z,98576.11
2019-04-22T14:36:02.887Z,98560.83
2019-04-22T14:38:32.447Z,98559.65
2019-04-22T14:41:02.442Z,98555.59
2019-04-22T14:44:00.109Z,98553.47
2019-04-22T14:46:27.845Z,98552.37
2019-04-22T14:49:13.240Z,98547.41
2019-04-22T14:51:20.728Z,98538.54
2019-04-22T14:53:52.272Z,98537.23
2019-04-22T14:56:02.279Z,98532.42
2019-04-22T14:58:31.153Z,98529.09
2019-04-22T15:01:01.246Z,98518.75
2019-04-22T15:03:29.685Z,98520.23
2019-04-22T15:05:58.076Z,98515.33
2019-04-22T15:08:26.912Z,98513.69
2019-04-22T15:10:55.839Z,98519.17
2019-04-22T15:13:25.313Z,98518.60
2019-04-22T15:15:57.449Z,98507.98
2019-04-22T15:18:33.547Z,98507.46
2019-04-22T15:21:04.977Z,98510.59
2019-04-22T15:23:34.813Z,98506.09
2019-04-22T15:26:04.602Z,98495.50
2019-04-22T15:28:33.449Z,98501.02
2019-04-22T15:31:03.481Z,98500.04
2019-04-22T15:33:33.077Z,98494.83
2019-04-22T15:36:01.674Z,98492.30
2019-04-22T15:38:30.304Z,98501.44
2019-04-22T15:40:58.824Z,98490.88
2019-04-22T15:43:30.887Z,98480.08
2019-04-22T15:46:00.487Z,98485.37
2019-04-22T15:48:27.460Z,98484.95
2019-04-22T15:50:55.934Z,98482.16
2019-04-22T15:53:25.418Z,98475.45
2019-04-22T15:55:54.680Z,98471.45
2019-04-22T15:58:23.867Z,98473.22
2019-04-22T16:01:05.275Z,98471.38
2019-04-22T16:03:22.867Z,98470.52
2019-04-22T16:05:52.218Z,98471.98
2019-04-22T16:08:21.369Z,98465.09
2019-04-22T16:10:49.966Z,98464.36
2019-04-22T16:13:23.242Z,98460.47
2019-04-22T16:15:48.996Z,98463.66
2019-04-22T16:18:18.209Z,98459.48
2019-04-22T16:20:48.094Z,98456.45
2019-04-22T16:23:34.118Z,98459.80
2019-04-22T16:26:05.256Z,98458.69
2019-04-22T16:28:35.253Z,98451.96
2019-04-22T16:33:36.065Z,98445.23
2019-04-22T16:36:02.864Z,98449.00
2019-04-22T16:38:31.357Z,98442.22
2019-04-22T16:41:00.986Z,98439.42
2019-04-22T16:43:30.833Z,98434.55
2019-04-22T16:45:59.449Z,98430.55
2019-04-22T16:48:27.902Z,98438.03
2019-04-22T16:50:56.950Z,98428.83
2019-04-22T16:53:27.271Z,98431.23
2019-04-22T16:55:57.153Z,98423.52
2019-04-22T16:58:25.732Z,98420.41
2019-04-22T17:00:54.685Z,98423.97
2019-04-22T17:03:25.007Z,98424.88
2019-04-22T17:06:11.627Z,98422.20
2019-04-22T17:08:40.350Z,98424.17
2019-04-22T17:11:09.730Z,98422.32
2019-04-22T17:13:39.886Z,98419.58
2019-04-22T17:16:09.869Z,98418.10
2019-04-22T17:18:39.386Z,98418.25
2019-04-22T17:21:10.145Z,98417.94
2019-04-22T17:23:38.412Z,98418.80
2019-04-22T17:26:08.413Z,98414.12
2019-04-22T17:28:37.478Z,98412.16
2019-04-22T17:31:06.656Z,98412.17
2019-04-22T17:33:35.368Z,98413.38
2019-04-22T17:36:05.375Z,98419.84
2019-04-22T17:38:46.804Z,98420.86
2019-04-22T17:41:20.248Z,98423.25
2019-04-22T17:44:09.814Z,98418.63
2019-04-22T17:46:33.633Z,98420.30
2019-04-22T17:49:35.111Z,98423.83
2019-04-22T17:52:17.395Z,98422.87
2019-04-22T17:54:44.729Z,98424.27
2019-04-22T17:57:13.960Z,98422.31
2019-04-22T17:59:42.092Z,98421.83
2019-04-22T18:02:12.932Z,98429.07
2019-04-22T18:07:18.355Z,98426.88
2019-04-22T18:10:13.996Z,98429.23
2019-04-22T18:12:20.624Z,98428.09
2019-04-22T18:14:49.691Z,98430.11
2019-04-22T18:17:20.807Z,98425.91
2019-04-22T18:19:40.228Z,98428.78
2019-04-22T18:22:09.397Z,98423.59
2019-04-22T18:24:32.619Z,98421.88
2019-04-22T18:27:33.204Z,98426.62
2019-04-22T18:29:44.197Z,98434.87
2019-04-22T18:32:02.771Z,98431.57
2019-04-22T18:34:37.572Z,98433.27
2019-04-22T18:37:09.016Z,98432.59
2019-04-22T18:39:47.742Z,98427.36
2019-04-22T18:42:16.038Z,98433.34
2019-04-22T18:44:45.815Z,98431.55
2019-04-22T18:47:11.646Z,98430.04
2019-04-22T18:49:42.880Z,98433.92
2019-04-22T18:52:19.581Z,98438.02
2019-04-22T18:54:53.386Z,98431.31
2019-04-22T18:57:22.425Z,98432.19
2019-04-22T18:59:41.112Z,98430.86
2019-04-22T19:02:11.813Z,98433.41
2019-04-22T19:04:47.253Z,98442.36
2019-04-22T19:07:35.110Z,98445.05
2019-04-22T19:10:04.609Z,98448.88
2019-04-22T19:12:33.933Z,98450.23
2019-04-22T19:15:16.326Z,98450.02
2019-04-22T19:20:08.215Z,98447.07
2019-04-22T19:22:29.910Z,98443.85
2019-04-22T19:24:54.987Z,98450.34
2019-04-22T19:27:34.684Z,98441.47
2019-04-22T19:30:03.988Z,98443.89
2019-04-22T19:32:35.122Z,98440.13
2019-04-22T19:34:57.491Z,98442.27
2019-04-22T19:37:28.411Z,98442.28
2019-04-22T19:40:11.614Z,98442.28
2019-04-22T19:42:38.143Z,98437.75
2019-04-22T19:45:02.606Z,98437.22
2019-04-22T19:47:50.074Z,98439.34
2019-04-22T19:50:09.387Z,98439.65
2019-04-22T19:52:33.406Z,98432.63
2019-04-22T19:55:03.292Z,98429.17
2019-04-22T19:57:26.597Z,98436.47
2019-04-22T20:00:00.436Z,98429.72
2019-04-22T20:04:33.033Z,98432.97
2019-04-22T20:06:53.942Z,98429.75
2019-04-22T20:09:33.372Z,98432.17
2019-04-22T20:11:57.613Z,98430.83
2019-04-22T20:14:33.381Z,98428.14
2019-04-22T20:16:54.787Z,98432.73
2019-04-22T20:19:33.864Z,98431.13
2019-04-22T20:21:59.651Z,98427.93
2019-04-22T20:24:15.843Z,98428.17
2019-04-22T20:27:10.831Z,98425.78
2019-04-22T20:29:37.677Z,98415.58
2019-04-22T20:31:59.262Z,98412.35
2019-04-22T20:34:32.159Z,98413.72
2019-04-22T20:39:33.096Z,98421.50
2019-04-22T20:42:05.567Z,98416.70
2019-04-22T20:44:33.512Z,98405.15
2019-04-22T20:47:01.409Z,98409.98
2019-04-22T20:49:35.564Z,98406.48
2019-04-22T20:52:08.486Z,98414.83
2019-04-22T20:54:35.889Z,98413.45
2019-04-22T20:56:59.653Z,98415.09
2019-04-22T20:59:28.415Z,98413.47
2019-04-22T21:01:58.319Z,98408.10
2019-04-22T21:04:24.851Z,98410.22
2019-04-22T21:07:02.231Z,98405.40
2019-04-22T21:09:33.763Z,98402.17
2019-04-22T21:11:59.431Z,98404.33
2019-04-22T21:14:30.669Z,98399.22
2019-04-22T21:17:10.138Z,98402.98
2019-04-22T21:22:09.430Z,98396.53
2019-04-22T21:24:34.777Z,98388.50
2019-04-22T21:27:17.003Z,98387.43
2019-04-22T21:29:33.368Z,98389.83
2019-04-22T21:32:07.847Z,98386.09
2019-04-22T21:34:43.677Z,98385.81
2019-04-22T21:37:16.057Z,98386.08
2019-04-22T21:39:36.675Z,98383.38
2019-04-22T21:42:09.236Z,98376.95
2019-04-22T21:44:43.228Z,98377.20
2019-04-22T21:47:14.958Z,98382.28
2019-04-22T21:49:45.938Z,98374.25
2019-04-22T21:52:13.251Z,98377.44
2019-04-22T21:54:46.738Z,98378.51
2019-04-22T21:59:46.487Z,98370.98
2019-04-22T22:02:25.668Z,98371.53
2019-04-22T22:04:44.516Z,98380.09
2019-04-22T22:07:07.620Z,98373.88
2019-04-22T22:09:50.723Z,98374.66
2019-04-22T22:12:18.208Z,98373.02
2019-04-22T22:14:49.778Z,98372.73
2019-04-22T22:17:18.821Z,98367.35
2019-04-22T22:19:49.626Z,98371.36
2019-04-22T22:22:34.825Z,98360.91
2019-04-22T22:24:50.148Z,98363.05
2019-04-22T22:27:20.457Z,98361.14
2019-04-22T22:29:57.167Z,98352.57
2019-04-22T22:32:26.051Z,98360.27
2019-04-22T22:34:50.725Z,98352.79
2019-04-22T22:37:08.469Z,98361.08
2019-04-22T22:39:39.178Z,98353.80
2019-04-22T22:42:01.817Z,98357.29
2019-04-22T22:44:38.029Z,98350.30
2019-04-22T22:47:19.227Z,98340.88
2019-04-22T22:49:53.593Z,98344.33
2019-04-22T22:52:45.139Z,98339.77
2019-04-22T22:54:55.165Z,98337.32
2019-04-22T22:57:27.653Z,98337.03
2019-04-22T22:59:51.302Z,98340.44
2019-04-22T23:02:22.558Z,98334.55
2019-04-22T23:04:54.639Z,98336.62
2019-04-22T23:07:28.787Z,98335.53
2019-04-22T23:09:53.770Z,98328.55
2019-04-22T23:14:50.146Z,98338.91
2019-04-22T23:17:10.119Z,98333.78
2019-04-22T23:19:39.857Z,98331.86
2019-04-22T23:22:12.558Z,98324.63
2019-04-22T23:24:57.732Z,98328.59
2019-04-22T23:27:28.982Z,98327.78
2019-04-22T23:29:49.447Z,98322.08
2019-04-22T23:32:21.205Z,98335.69
2019-04-22T23:35:01.762Z,98325.22
2019-04-22T23:37:29.241Z,98319.30
2019-04-22T23:40:16.171Z,98316.06
2019-04-22T23:42:36.583Z,98317.06
2019-04-22T23:45:10.798Z,98315.73
2019-04-22T23:47:33.709Z,98317.56
2019-04-22T23:50:09.412Z,98271.88
2019-04-22T23:52:46.874Z,98310.52
2019-04-22T23:55:14.321Z,98298.99
2019-04-22T23:57:42.218Z,98295.45
